sensor_id;sensor_type;location;lat;lon;timestamp;P1;durP1;ratioP1;P2;durP2;ratioP2
39968;SDS011;25648;47.808;19.004;2022-10-23T00:00:35;48.90;;;33.53;;
39968;SDS011;25648;47.808;19.004;2022-10-23T00:03:01;46.47;;;32.90;;
39968;SDS011;25648;47.808;19.004;2022-10-23T00:05:27;51.22;;;34.88;;
39968;SDS011;25648;47.808;19.004;2022-10-23T00:07:55;55.45;;;33.80;;
39968;SDS011;25648;47.808;19.004;2022-10-23T00:10:23;47.90;;;32.97;;
39968;SDS011;25648;47.808;19.004;2022-10-23T00:12:50;43.90;;;31.45;;
39968;SDS011;25648;47.808;19.004;2022-10-23T00:15:18;47.95;;;33.58;;
39968;SDS011;25648;47.808;19.004;2022-10-23T00:17:45;54.45;;;34.65;;
39968;SDS011;25648;47.808;19.004;2022-10-23T00:20:12;44.72;;;31.88;;
39968;SDS011;25648;47.808;19.004;2022-10-23T00:22:40;52.50;;;35.53;;
39968;SDS011;25648;47.808;19.004;2022-10-23T00:25:06;50.22;;;34.50;;
39968;SDS011;25648;47.808;19.004;2022-10-23T00:27:33;48.90;;;33.03;;
39968;SDS011;25648;47.808;19.004;2022-10-23T00:29:59;51.47;;;35.08;;
39968;SDS011;25648;47.808;19.004;2022-10-23T00:32:26;46.30;;;32.15;;
39968;SDS011;25648;47.808;19.004;2022-10-23T00:34:52;49.13;;;32.80;;
39968;SDS011;25648;47.808;19.004;2022-10-23T00:37:18;50.90;;;32.30;;
39968;SDS011;25648;47.808;19.004;2022-10-23T00:39:44;51.00;;;34.60;;
39968;SDS011;25648;47.808;19.004;2022-10-23T00:42:13;49.65;;;34.38;;
39968;SDS011;25648;47.808;19.004;2022-10-23T00:47:07;57.00;;;37.08;;
39968;SDS011;25648;47.808;19.004;2022-10-23T00:49:33;52.05;;;35.65;;
39968;SDS011;25648;47.808;19.004;2022-10-23T00:52:00;49.28;;;33.67;;
39968;SDS011;25648;47.808;19.004;2022-10-23T00:54:30;47.83;;;33.42;;
39968;SDS011;25648;47.808;19.004;2022-10-23T00:57:00;53.08;;;34.00;;
39968;SDS011;25648;47.808;19.004;2022-10-23T00:59:28;48.53;;;33.25;;
39968;SDS011;25648;47.808;19.004;2022-10-23T01:01:55;52.70;;;34.67;;
39968;SDS011;25648;47.808;19.004;2022-10-23T01:04:20;56.08;;;34.28;;
39968;SDS011;25648;47.808;19.004;2022-10-23T01:06:53;48.40;;;32.95;;
39968;SDS011;25648;47.808;19.004;2022-10-23T01:09:32;47.00;;;30.92;;
39968;SDS011;25648;47.808;19.004;2022-10-23T01:15:15;48.42;;;31.42;;
39968;SDS011;25648;47.808;19.004;2022-10-23T01:17:44;49.50;;;31.80;;
39968;SDS011;25648;47.808;19.004;2022-10-23T01:26:26;43.70;;;29.77;;
39968;SDS011;25648;47.808;19.004;2022-10-23T01:31:09;47.20;;;28.63;;
39968;SDS011;25648;47.808;19.004;2022-10-23T01:33:40;46.40;;;30.38;;
39968;SDS011;25648;47.808;19.004;2022-10-23T01:36:11;45.92;;;29.20;;
39968;SDS011;25648;47.808;19.004;2022-10-23T01:41:18;44.03;;;28.27;;
39968;SDS011;25648;47.808;19.004;2022-10-23T01:46:38;45.30;;;28.27;;
39968;SDS011;25648;47.808;19.004;2022-10-23T01:49:07;38.72;;;26.35;;
39968;SDS011;25648;47.808;19.004;2022-10-23T01:51:35;45.75;;;29.25;;
39968;SDS011;25648;47.808;19.004;2022-10-23T01:54:03;42.95;;;29.08;;
39968;SDS011;25648;47.808;19.004;2022-10-23T01:56:34;39.67;;;27.45;;
39968;SDS011;25648;47.808;19.004;2022-10-23T01:59:03;44.20;;;28.20;;
39968;SDS011;25648;47.808;19.004;2022-10-23T02:01:33;47.90;;;30.88;;
39968;SDS011;25648;47.808;19.004;2022-10-23T02:04:01;45.95;;;30.58;;
39968;SDS011;25648;47.808;19.004;2022-10-23T02:06:30;44.17;;;29.65;;
39968;SDS011;25648;47.808;19.004;2022-10-23T02:08:56;45.33;;;30.80;;
39968;SDS011;25648;47.808;19.004;2022-10-23T02:11:22;45.13;;;30.10;;
39968;SDS011;25648;47.808;19.004;2022-10-23T02:21:29;43.72;;;29.23;;
39968;SDS011;25648;47.808;19.004;2022-10-23T02:24:10;47.55;;;31.05;;
39968;SDS011;25648;47.808;19.004;2022-10-23T02:26:50;46.03;;;31.25;;
39968;SDS011;25648;47.808;19.004;2022-10-23T02:31:54;44.50;;;30.42;;
39968;SDS011;25648;47.808;19.004;2022-10-23T02:34:20;48.25;;;33.10;;
39968;SDS011;25648;47.808;19.004;2022-10-23T02:36:47;47.65;;;32.55;;
39968;SDS011;25648;47.808;19.004;2022-10-23T02:39:12;45.97;;;30.95;;
39968;SDS011;25648;47.808;19.004;2022-10-23T02:41:54;47.13;;;29.75;;
39968;SDS011;25648;47.808;19.004;2022-10-23T02:45:31;47.45;;;31.02;;
39968;SDS011;25648;47.808;19.004;2022-10-23T02:50:25;48.00;;;31.63;;
39968;SDS011;25648;47.808;19.004;2022-10-23T03:01:16;48.05;;;32.10;;
39968;SDS011;25648;47.808;19.004;2022-10-23T03:03:51;44.47;;;28.15;;
39968;SDS011;25648;47.808;19.004;2022-10-23T03:06:19;45.65;;;29.80;;
39968;SDS011;25648;47.808;19.004;2022-10-23T03:09:00;41.35;;;29.13;;
39968;SDS011;25648;47.808;19.004;2022-10-23T03:11:28;43.45;;;29.67;;
39968;SDS011;25648;47.808;19.004;2022-10-23T03:13:54;48.08;;;29.70;;
39968;SDS011;25648;47.808;19.004;2022-10-23T03:16:20;43.17;;;29.48;;
39968;SDS011;25648;47.808;19.004;2022-10-23T03:18:46;41.83;;;28.77;;
39968;SDS011;25648;47.808;19.004;2022-10-23T03:21:12;43.97;;;30.23;;
39968;SDS011;25648;47.808;19.004;2022-10-23T03:23:38;43.10;;;28.65;;
39968;SDS011;25648;47.808;19.004;2022-10-23T03:26:04;45.47;;;30.52;;
39968;SDS011;25648;47.808;19.004;2022-10-23T03:28:30;44.28;;;29.40;;
39968;SDS011;25648;47.808;19.004;2022-10-23T03:30:55;47.45;;;29.85;;
39968;SDS011;25648;47.808;19.004;2022-10-23T03:33:21;43.58;;;29.48;;
39968;SDS011;25648;47.808;19.004;2022-10-23T03:35:48;45.28;;;30.35;;
39968;SDS011;25648;47.808;19.004;2022-10-23T03:38:14;40.97;;;29.15;;
39968;SDS011;25648;47.808;19.004;2022-10-23T03:40:40;46.13;;;30.88;;
39968;SDS011;25648;47.808;19.004;2022-10-23T03:43:06;42.13;;;29.05;;
39968;SDS011;25648;47.808;19.004;2022-10-23T03:45:32;47.13;;;30.90;;
39968;SDS011;25648;47.808;19.004;2022-10-23T03:47:58;47.00;;;31.17;;
39968;SDS011;25648;47.808;19.004;2022-10-23T03:50:23;43.95;;;29.40;;
39968;SDS011;25648;47.808;19.004;2022-10-23T03:52:49;43.20;;;28.80;;
39968;SDS011;25648;47.808;19.004;2022-10-23T03:55:15;42.58;;;29.05;;
39968;SDS011;25648;47.808;19.004;2022-10-23T03:57:41;45.53;;;30.58;;
39968;SDS011;25648;47.808;19.004;2022-10-23T04:00:07;47.00;;;30.30;;
39968;SDS011;25648;47.808;19.004;2022-10-23T04:02:33;43.17;;;29.23;;
39968;SDS011;25648;47.808;19.004;2022-10-23T04:04:59;49.30;;;31.90;;
39968;SDS011;25648;47.808;19.004;2022-10-23T04:07:25;50.92;;;30.90;;
39968;SDS011;25648;47.808;19.004;2022-10-23T04:09:51;46.97;;;30.90;;
39968;SDS011;25648;47.808;19.004;2022-10-23T04:12:16;50.55;;;32.75;;
39968;SDS011;25648;47.808;19.004;2022-10-23T04:14:42;48.03;;;31.40;;
39968;SDS011;25648;47.808;19.004;2022-10-23T04:17:08;48.17;;;32.97;;
39968;SDS011;25648;47.808;19.004;2022-10-23T04:19:33;45.70;;;30.77;;
39968;SDS011;25648;47.808;19.004;2022-10-23T04:21:59;48.83;;;32.35;;
39968;SDS011;25648;47.808;19.004;2022-10-23T04:24:25;51.40;;;33.15;;
39968;SDS011;25648;47.808;19.004;2022-10-23T04:26:51;85.82;;;54.72;;
39968;SDS011;25648;47.808;19.004;2022-10-23T04:29:17;85.68;;;51.63;;
39968;SDS011;25648;47.808;19.004;2022-10-23T04:31:45;81.97;;;51.35;;
39968;SDS011;25648;47.808;19.004;2022-10-23T04:34:10;76.22;;;49.95;;
39968;SDS011;25648;47.808;19.004;2022-10-23T04:36:36;51.42;;;34.22;;
39968;SDS011;25648;47.808;19.004;2022-10-23T04:39:02;55.97;;;35.00;;
39968;SDS011;25648;47.808;19.004;2022-10-23T04:41:27;50.95;;;33.17;;
39968;SDS011;25648;47.808;19.004;2022-10-23T04:43:53;56.60;;;37.00;;
39968;SDS011;25648;47.808;19.004;2022-10-23T04:46:19;56.30;;;37.53;;
39968;SDS011;25648;47.808;19.004;2022-10-23T04:48:45;59.80;;;39.03;;
39968;SDS011;25648;47.808;19.004;2022-10-23T04:51:10;58.40;;;37.97;;
39968;SDS011;25648;47.808;19.004;2022-10-23T04:53:36;55.45;;;36.05;;
39968;SDS011;25648;47.808;19.004;2022-10-23T04:56:03;48.53;;;32.95;;
39968;SDS011;25648;47.808;19.004;2022-10-23T04:58:29;51.13;;;33.53;;
39968;SDS011;25648;47.808;19.004;2022-10-23T05:00:55;45.38;;;30.85;;
39968;SDS011;25648;47.808;19.004;2022-10-23T05:03:21;51.10;;;32.42;;
39968;SDS011;25648;47.808;19.004;2022-10-23T05:05:48;46.88;;;31.38;;
39968;SDS011;25648;47.808;19.004;2022-10-23T05:08:18;45.90;;;30.63;;
39968;SDS011;25648;47.808;19.004;2022-10-23T05:10:44;47.13;;;30.48;;
39968;SDS011;25648;47.808;19.004;2022-10-23T05:13:11;43.33;;;29.08;;
39968;SDS011;25648;47.808;19.004;2022-10-23T05:15:36;52.17;;;32.22;;
39968;SDS011;25648;47.808;19.004;2022-10-23T05:21:09;52.67;;;31.48;;
39968;SDS011;25648;47.808;19.004;2022-10-23T05:23:43;46.58;;;29.45;;
39968;SDS011;25648;47.808;19.004;2022-10-23T05:26:10;45.83;;;30.95;;
39968;SDS011;25648;47.808;19.004;2022-10-23T05:28:36;48.50;;;31.13;;
39968;SDS011;25648;47.808;19.004;2022-10-23T05:31:02;49.50;;;30.90;;
39968;SDS011;25648;47.808;19.004;2022-10-23T05:33:29;43.13;;;27.65;;
39968;SDS011;25648;47.808;19.004;2022-10-23T05:35:56;42.67;;;28.55;;
39968;SDS011;25648;47.808;19.004;2022-10-23T05:38:23;57.38;;;33.78;;
39968;SDS011;25648;47.808;19.004;2022-10-23T05:40:51;57.10;;;35.08;;
39968;SDS011;25648;47.808;19.004;2022-10-23T05:43:18;57.50;;;36.00;;
39968;SDS011;25648;47.808;19.004;2022-10-23T05:45:43;56.83;;;36.97;;
39968;SDS011;25648;47.808;19.004;2022-10-23T05:48:09;62.85;;;37.50;;
39968;SDS011;25648;47.808;19.004;2022-10-23T05:50:38;64.53;;;37.28;;
39968;SDS011;25648;47.808;19.004;2022-10-23T05:53:03;64.78;;;37.42;;
39968;SDS011;25648;47.808;19.004;2022-10-23T05:55:29;60.95;;;35.47;;
39968;SDS011;25648;47.808;19.004;2022-10-23T05:57:55;58.65;;;34.67;;
39968;SDS011;25648;47.808;19.004;2022-10-23T06:00:20;82.82;;;41.90;;
39968;SDS011;25648;47.808;19.004;2022-10-23T06:02:46;85.18;;;43.25;;
39968;SDS011;25648;47.808;19.004;2022-10-23T06:05:12;59.10;;;36.03;;
39968;SDS011;25648;47.808;19.004;2022-10-23T06:07:37;58.40;;;34.67;;
39968;SDS011;25648;47.808;19.004;2022-10-23T06:10:03;83.80;;;40.17;;
39968;SDS011;25648;47.808;19.004;2022-10-23T06:12:30;68.72;;;35.28;;
39968;SDS011;25648;47.808;19.004;2022-10-23T06:14:56;57.35;;;32.58;;
39968;SDS011;25648;47.808;19.004;2022-10-23T06:17:22;58.83;;;37.75;;
39968;SDS011;25648;47.808;19.004;2022-10-23T06:19:48;51.72;;;34.20;;
39968;SDS011;25648;47.808;19.004;2022-10-23T06:22:14;59.97;;;38.78;;
39968;SDS011;25648;47.808;19.004;2022-10-23T06:24:39;52.58;;;30.77;;
39968;SDS011;25648;47.808;19.004;2022-10-23T06:27:05;41.00;;;28.55;;
39968;SDS011;25648;47.808;19.004;2022-10-23T06:29:31;53.17;;;31.77;;
39968;SDS011;25648;47.808;19.004;2022-10-23T06:31:56;45.53;;;29.52;;
39968;SDS011;25648;47.808;19.004;2022-10-23T06:34:22;57.25;;;34.42;;
39968;SDS011;25648;47.808;19.004;2022-10-23T06:36:48;58.55;;;36.85;;
39968;SDS011;25648;47.808;19.004;2022-10-23T06:39:13;49.47;;;32.50;;
39968;SDS011;25648;47.808;19.004;2022-10-23T06:41:39;52.95;;;33.22;;
39968;SDS011;25648;47.808;19.004;2022-10-23T06:44:06;52.17;;;32.97;;
39968;SDS011;25648;47.808;19.004;2022-10-23T06:46:33;45.65;;;31.30;;
39968;SDS011;25648;47.808;19.004;2022-10-23T06:48:59;45.33;;;29.20;;
39968;SDS011;25648;47.808;19.004;2022-10-23T06:51:24;46.15;;;31.67;;
39968;SDS011;25648;47.808;19.004;2022-10-23T06:53:53;51.25;;;30.75;;
39968;SDS011;25648;47.808;19.004;2022-10-23T06:56:20;62.85;;;34.88;;
39968;SDS011;25648;47.808;19.004;2022-10-23T06:58:46;52.47;;;31.67;;
39968;SDS011;25648;47.808;19.004;2022-10-23T07:01:12;57.25;;;35.08;;
39968;SDS011;25648;47.808;19.004;2022-10-23T07:03:38;53.00;;;36.85;;
39968;SDS011;25648;47.808;19.004;2022-10-23T07:06:07;49.00;;;32.17;;
39968;SDS011;25648;47.808;19.004;2022-10-23T07:08:34;49.95;;;31.25;;
39968;SDS011;25648;47.808;19.004;2022-10-23T07:11:01;60.20;;;36.33;;
39968;SDS011;25648;47.808;19.004;2022-10-23T07:13:30;52.75;;;33.22;;
39968;SDS011;25648;47.808;19.004;2022-10-23T07:15:56;56.80;;;35.08;;
39968;SDS011;25648;47.808;19.004;2022-10-23T07:18:22;57.47;;;35.30;;
39968;SDS011;25648;47.808;19.004;2022-10-23T07:20:48;50.22;;;32.58;;
39968;SDS011;25648;47.808;19.004;2022-10-23T07:23:15;47.25;;;31.08;;
39968;SDS011;25648;47.808;19.004;2022-10-23T07:25:41;45.58;;;30.48;;
39968;SDS011;25648;47.808;19.004;2022-10-23T07:28:07;52.38;;;33.55;;
39968;SDS011;25648;47.808;19.004;2022-10-23T07:30:32;52.42;;;34.17;;
39968;SDS011;25648;47.808;19.004;2022-10-23T07:32:58;65.95;;;38.92;;
39968;SDS011;25648;47.808;19.004;2022-10-23T07:35:24;44.75;;;30.67;;
39968;SDS011;25648;47.808;19.004;2022-10-23T07:37:49;46.45;;;30.42;;
39968;SDS011;25648;47.808;19.004;2022-10-23T07:40:15;49.28;;;30.70;;
39968;SDS011;25648;47.808;19.004;2022-10-23T07:42:42;47.67;;;33.50;;
39968;SDS011;25648;47.808;19.004;2022-10-23T07:45:08;81.60;;;52.05;;
39968;SDS011;25648;47.808;19.004;2022-10-23T07:47:35;70.80;;;44.38;;
39968;SDS011;25648;47.808;19.004;2022-10-23T07:50:01;52.83;;;36.08;;
39968;SDS011;25648;47.808;19.004;2022-10-23T07:52:26;48.88;;;32.88;;
39968;SDS011;25648;47.808;19.004;2022-10-23T07:54:52;45.60;;;31.17;;
39968;SDS011;25648;47.808;19.004;2022-10-23T07:57:18;39.92;;;27.38;;
39968;SDS011;25648;47.808;19.004;2022-10-23T07:59:44;44.60;;;31.75;;
39968;SDS011;25648;47.808;19.004;2022-10-23T08:02:10;39.33;;;28.02;;
39968;SDS011;25648;47.808;19.004;2022-10-23T08:04:38;41.13;;;29.02;;
39968;SDS011;25648;47.808;19.004;2022-10-23T08:07:04;38.72;;;26.95;;
39968;SDS011;25648;47.808;19.004;2022-10-23T08:09:29;35.22;;;24.67;;
39968;SDS011;25648;47.808;19.004;2022-10-23T08:11:55;34.53;;;24.35;;
39968;SDS011;25648;47.808;19.004;2022-10-23T08:14:21;31.90;;;22.15;;
39968;SDS011;25648;47.808;19.004;2022-10-23T08:16:46;29.13;;;21.63;;
39968;SDS011;25648;47.808;19.004;2022-10-23T08:19:12;29.90;;;21.83;;
39968;SDS011;25648;47.808;19.004;2022-10-23T08:21:38;29.77;;;21.58;;
39968;SDS011;25648;47.808;19.004;2022-10-23T08:24:03;26.35;;;19.55;;
39968;SDS011;25648;47.808;19.004;2022-10-23T08:26:29;29.00;;;20.65;;
39968;SDS011;25648;47.808;19.004;2022-10-23T08:28:58;29.73;;;21.33;;
39968;SDS011;25648;47.808;19.004;2022-10-23T08:31:25;29.63;;;21.27;;
39968;SDS011;25648;47.808;19.004;2022-10-23T08:33:50;29.10;;;21.45;;
39968;SDS011;25648;47.808;19.004;2022-10-23T08:36:18;30.15;;;20.48;;
39968;SDS011;25648;47.808;19.004;2022-10-23T08:38:46;29.77;;;22.40;;
39968;SDS011;25648;47.808;19.004;2022-10-23T08:41:32;33.65;;;24.17;;
39968;SDS011;25648;47.808;19.004;2022-10-23T08:46:41;33.63;;;23.70;;
39968;SDS011;25648;47.808;19.004;2022-10-23T08:49:22;31.42;;;22.83;;
39968;SDS011;25648;47.808;19.004;2022-10-23T08:52:13;33.97;;;22.92;;
39968;SDS011;25648;47.808;19.004;2022-10-23T08:54:45;32.67;;;24.27;;
39968;SDS011;25648;47.808;19.004;2022-10-23T08:57:15;32.80;;;23.00;;
39968;SDS011;25648;47.808;19.004;2022-10-23T08:59:49;43.58;;;39.15;;
39968;SDS011;25648;47.808;19.004;2022-10-23T09:02:25;31.75;;;23.58;;
39968;SDS011;25648;47.808;19.004;2022-10-23T09:04:53;33.20;;;22.80;;
39968;SDS011;25648;47.808;19.004;2022-10-23T09:12:42;36.65;;;24.40;;
39968;SDS011;25648;47.808;19.004;2022-10-23T09:15:26;32.65;;;24.05;;
39968;SDS011;25648;47.808;19.004;2022-10-23T09:17:55;37.22;;;23.60;;
39968;SDS011;25648;47.808;19.004;2022-10-23T09:20:25;40.08;;;23.77;;
39968;SDS011;25648;47.808;19.004;2022-10-23T09:23:02;34.83;;;22.58;;
39968;SDS011;25648;47.808;19.004;2022-10-23T09:25:36;28.33;;;19.80;;
39968;SDS011;25648;47.808;19.004;2022-10-23T09:28:03;30.80;;;21.27;;
39968;SDS011;25648;47.808;19.004;2022-10-23T09:30:31;27.55;;;21.08;;
39968;SDS011;25648;47.808;19.004;2022-10-23T09:33:18;40.30;;;21.95;;
39968;SDS011;25648;47.808;19.004;2022-10-23T09:35:57;29.80;;;20.98;;
39968;SDS011;25648;47.808;19.004;2022-10-23T09:38:26;32.35;;;21.73;;
39968;SDS011;25648;47.808;19.004;2022-10-23T09:41:10;42.30;;;25.15;;
39968;SDS011;25648;47.808;19.004;2022-10-23T09:43:44;31.13;;;21.20;;
39968;SDS011;25648;47.808;19.004;2022-10-23T09:46:10;27.40;;;19.67;;
39968;SDS011;25648;47.808;19.004;2022-10-23T09:48:36;27.27;;;19.50;;
39968;SDS011;25648;47.808;19.004;2022-10-23T09:51:12;25.13;;;18.45;;
39968;SDS011;25648;47.808;19.004;2022-10-23T09:58:56;23.45;;;17.15;;
39968;SDS011;25648;47.808;19.004;2022-10-23T10:01:26;18.45;;;14.80;;
39968;SDS011;25648;47.808;19.004;2022-10-23T10:03:54;18.50;;;13.48;;
39968;SDS011;25648;47.808;19.004;2022-10-23T10:06:25;18.95;;;13.82;;
39968;SDS011;25648;47.808;19.004;2022-10-23T10:08:56;17.95;;;14.32;;
39968;SDS011;25648;47.808;19.004;2022-10-23T10:12:40;19.83;;;14.20;;
39968;SDS011;25648;47.808;19.004;2022-10-23T10:22:55;19.48;;;15.60;;
39968;SDS011;25648;47.808;19.004;2022-10-23T10:31:11;21.05;;;15.35;;
39968;SDS011;25648;47.808;19.004;2022-10-23T10:39:19;19.75;;;14.73;;
39968;SDS011;25648;47.808;19.004;2022-10-23T10:44:49;21.80;;;16.27;;
39968;SDS011;25648;47.808;19.004;2022-10-23T10:50:30;19.92;;;14.98;;
39968;SDS011;25648;47.808;19.004;2022-10-23T10:55:55;21.27;;;15.98;;
39968;SDS011;25648;47.808;19.004;2022-10-23T10:58:37;23.33;;;16.02;;
39968;SDS011;25648;47.808;19.004;2022-10-23T11:01:18;19.88;;;15.52;;
39968;SDS011;25648;47.808;19.004;2022-10-23T11:03:55;22.02;;;15.32;;
39968;SDS011;25648;47.808;19.004;2022-10-23T11:06:22;20.80;;;14.90;;
39968;SDS011;25648;47.808;19.004;2022-10-23T11:08:50;17.67;;;13.25;;
39968;SDS011;25648;47.808;19.004;2022-10-23T11:11:17;18.42;;;13.65;;
39968;SDS011;25648;47.808;19.004;2022-10-23T11:13:48;27.40;;;17.65;;
39968;SDS011;25648;47.808;19.004;2022-10-23T11:37:19;21.63;;;16.10;;
39968;SDS011;25648;47.808;19.004;2022-10-23T11:40:46;22.48;;;17.13;;
39968;SDS011;25648;47.808;19.004;2022-10-23T11:42:47;24.85;;;18.45;;
39968;SDS011;25648;47.808;19.004;2022-10-23T12:06:41;29.30;;;23.05;;
39968;SDS011;25648;47.808;19.004;2022-10-23T12:12:03;25.52;;;20.63;;
39968;SDS011;25648;47.808;19.004;2022-10-23T12:14:40;26.58;;;21.15;;
39968;SDS011;25648;47.808;19.004;2022-10-23T12:17:48;28.90;;;20.50;;
39968;SDS011;25648;47.808;19.004;2022-10-23T12:22:40;25.83;;;17.30;;
39968;SDS011;25648;47.808;19.004;2022-10-23T12:34:07;18.73;;;14.30;;
39968;SDS011;25648;47.808;19.004;2022-10-23T12:36:54;16.48;;;13.35;;
39968;SDS011;25648;47.808;19.004;2022-10-23T12:42:16;15.63;;;12.52;;
39968;SDS011;25648;47.808;19.004;2022-10-23T12:44:59;15.70;;;12.98;;
39968;SDS011;25648;47.808;19.004;2022-10-23T12:47:26;16.58;;;12.00;;
39968;SDS011;25648;47.808;19.004;2022-10-23T12:49:53;16.63;;;11.35;;
39968;SDS011;25648;47.808;19.004;2022-10-23T12:52:19;16.48;;;11.63;;
39968;SDS011;25648;47.808;19.004;2022-10-23T12:54:45;15.30;;;11.57;;
39968;SDS011;25648;47.808;19.004;2022-10-23T12:57:23;15.73;;;11.32;;
39968;SDS011;25648;47.808;19.004;2022-10-23T12:59:54;15.52;;;12.57;;
39968;SDS011;25648;47.808;19.004;2022-10-23T13:02:32;15.02;;;10.73;;
39968;SDS011;25648;47.808;19.004;2022-10-23T13:04:59;12.98;;;10.18;;
39968;SDS011;25648;47.808;19.004;2022-10-23T13:07:29;17.23;;;10.27;;
39968;SDS011;25648;47.808;19.004;2022-10-23T13:09:58;14.98;;;10.75;;
39968;SDS011;25648;47.808;19.004;2022-10-23T13:12:34;13.38;;;8.95;;
39968;SDS011;25648;47.808;19.004;2022-10-23T13:20:15;27.98;;;25.35;;
39968;SDS011;25648;47.808;19.004;2022-10-23T13:22:44;10.80;;;6.53;;
39968;SDS011;25648;47.808;19.004;2022-10-23T13:25:19;9.25;;;5.55;;
39968;SDS011;25648;47.808;19.004;2022-10-23T13:30:43;8.38;;;7.38;;
39968;SDS011;25648;47.808;19.004;2022-10-23T13:33:13;10.80;;;9.65;;
39968;SDS011;25648;47.808;19.004;2022-10-23T13:35:39;11.07;;;6.18;;
39968;SDS011;25648;47.808;19.004;2022-10-23T13:38:08;10.40;;;8.65;;
39968;SDS011;25648;47.808;19.004;2022-10-23T13:40:34;8.73;;;5.75;;
39968;SDS011;25648;47.808;19.004;2022-10-23T13:43:00;12.30;;;8.85;;
39968;SDS011;25648;47.808;19.004;2022-10-23T13:45:26;19.67;;;17.75;;
39968;SDS011;25648;47.808;19.004;2022-10-23T13:47:52;11.85;;;8.30;;
39968;SDS011;25648;47.808;19.004;2022-10-23T13:50:18;9.82;;;6.53;;
39968;SDS011;25648;47.808;19.004;2022-10-23T13:52:45;8.27;;;5.57;;
39968;SDS011;25648;47.808;19.004;2022-10-23T13:55:23;133.32;;;90.50;;
39968;SDS011;25648;47.808;19.004;2022-10-23T13:57:50;14.45;;;12.80;;
39968;SDS011;25648;47.808;19.004;2022-10-23T14:00:16;10.73;;;7.25;;
39968;SDS011;25648;47.808;19.004;2022-10-23T14:02:42;11.77;;;7.55;;
39968;SDS011;25648;47.808;19.004;2022-10-23T14:05:09;16.73;;;11.00;;
39968;SDS011;25648;47.808;19.004;2022-10-23T14:07:36;18.77;;;12.85;;
39968;SDS011;25648;47.808;19.004;2022-10-23T14:10:01;28.20;;;14.60;;
39968;SDS011;25648;47.808;19.004;2022-10-23T14:12:28;20.30;;;12.27;;
39968;SDS011;25648;47.808;19.004;2022-10-23T14:14:54;16.88;;;11.75;;
39968;SDS011;25648;47.808;19.004;2022-10-23T14:17:19;18.40;;;11.10;;
39968;SDS011;25648;47.808;19.004;2022-10-23T14:19:45;12.80;;;8.73;;
39968;SDS011;25648;47.808;19.004;2022-10-23T14:22:12;14.75;;;10.63;;
39968;SDS011;25648;47.808;19.004;2022-10-23T14:24:38;19.73;;;12.98;;
39968;SDS011;25648;47.808;19.004;2022-10-23T14:27:04;19.75;;;14.23;;
39968;SDS011;25648;47.808;19.004;2022-10-23T14:29:29;13.00;;;9.35;;
39968;SDS011;25648;47.808;19.004;2022-10-23T14:31:55;11.48;;;8.20;;
39968;SDS011;25648;47.808;19.004;2022-10-23T14:34:21;9.45;;;7.57;;
39968;SDS011;25648;47.808;19.004;2022-10-23T14:36:47;13.10;;;8.80;;
39968;SDS011;25648;47.808;19.004;2022-10-23T14:39:12;10.93;;;8.07;;
39968;SDS011;25648;47.808;19.004;2022-10-23T14:41:39;12.20;;;8.25;;
39968;SDS011;25648;47.808;19.004;2022-10-23T14:44:05;10.98;;;7.70;;
39968;SDS011;25648;47.808;19.004;2022-10-23T14:46:31;10.70;;;7.50;;
39968;SDS011;25648;47.808;19.004;2022-10-23T14:48:59;12.63;;;8.15;;
39968;SDS011;25648;47.808;19.004;2022-10-23T14:51:25;11.68;;;8.20;;
39968;SDS011;25648;47.808;19.004;2022-10-23T14:53:57;15.43;;;9.15;;
39968;SDS011;25648;47.808;19.004;2022-10-23T14:56:28;12.77;;;9.38;;
39968;SDS011;25648;47.808;19.004;2022-10-23T14:58:55;12.73;;;8.70;;
39968;SDS011;25648;47.808;19.004;2022-10-23T15:01:43;15.25;;;9.05;;
39968;SDS011;25648;47.808;19.004;2022-10-23T15:04:09;14.60;;;9.30;;
39968;SDS011;25648;47.808;19.004;2022-10-23T15:06:35;14.20;;;10.35;;
39968;SDS011;25648;47.808;19.004;2022-10-23T15:09:01;16.38;;;11.25;;
39968;SDS011;25648;47.808;19.004;2022-10-23T15:11:28;17.60;;;9.77;;
39968;SDS011;25648;47.808;19.004;2022-10-23T15:13:54;11.77;;;8.20;;
39968;SDS011;25648;47.808;19.004;2022-10-23T15:16:20;14.25;;;8.52;;
39968;SDS011;25648;47.808;19.004;2022-10-23T15:18:46;11.02;;;7.72;;
39968;SDS011;25648;47.808;19.004;2022-10-23T15:21:12;9.30;;;6.43;;
39968;SDS011;25648;47.808;19.004;2022-10-23T15:23:40;7.22;;;5.57;;
39968;SDS011;25648;47.808;19.004;2022-10-23T15:26:08;12.93;;;6.50;;
39968;SDS011;25648;47.808;19.004;2022-10-23T15:28:37;10.18;;;6.50;;
39968;SDS011;25648;47.808;19.004;2022-10-23T15:31:03;9.63;;;6.07;;
39968;SDS011;25648;47.808;19.004;2022-10-23T15:33:30;9.88;;;7.30;;
39968;SDS011;25648;47.808;19.004;2022-10-23T15:35:55;9.27;;;6.28;;
39968;SDS011;25648;47.808;19.004;2022-10-23T15:38:21;11.23;;;7.63;;
39968;SDS011;25648;47.808;19.004;2022-10-23T15:40:47;18.23;;;10.80;;
39968;SDS011;25648;47.808;19.004;2022-10-23T15:43:14;19.90;;;11.95;;
39968;SDS011;25648;47.808;19.004;2022-10-23T15:45:40;18.70;;;11.65;;
39968;SDS011;25648;47.808;19.004;2022-10-23T15:48:06;13.82;;;10.50;;
39968;SDS011;25648;47.808;19.004;2022-10-23T15:50:35;14.63;;;10.65;;
39968;SDS011;25648;47.808;19.004;2022-10-23T15:53:01;15.10;;;10.95;;
39968;SDS011;25648;47.808;19.004;2022-10-23T15:55:27;18.88;;;13.15;;
39968;SDS011;25648;47.808;19.004;2022-10-23T15:57:53;19.98;;;12.48;;
39968;SDS011;25648;47.808;19.004;2022-10-23T16:00:19;120.55;;;67.82;;
39968;SDS011;25648;47.808;19.004;2022-10-23T16:02:45;64.57;;;38.72;;
39968;SDS011;25648;47.808;19.004;2022-10-23T16:05:10;23.27;;;15.77;;
39968;SDS011;25648;47.808;19.004;2022-10-23T16:07:36;70.88;;;41.97;;
39968;SDS011;25648;47.808;19.004;2022-10-23T16:10:02;42.70;;;29.00;;
39968;SDS011;25648;47.808;19.004;2022-10-23T16:12:28;19.23;;;15.05;;
39968;SDS011;25648;47.808;19.004;2022-10-23T16:14:54;28.10;;;16.33;;
39968;SDS011;25648;47.808;19.004;2022-10-23T16:17:20;64.82;;;57.67;;
39968;SDS011;25648;47.808;19.004;2022-10-23T16:19:48;21.80;;;18.27;;
39968;SDS011;25648;47.808;19.004;2022-10-23T16:22:13;41.50;;;37.08;;
39968;SDS011;25648;47.808;19.004;2022-10-23T16:24:40;23.45;;;19.50;;
39968;SDS011;25648;47.808;19.004;2022-10-23T16:27:06;20.23;;;15.00;;
39968;SDS011;25648;47.808;19.004;2022-10-23T16:29:31;25.15;;;19.23;;
39968;SDS011;25648;47.808;19.004;2022-10-23T16:31:57;21.58;;;17.10;;
39968;SDS011;25648;47.808;19.004;2022-10-23T16:34:24;20.08;;;16.25;;
39968;SDS011;25648;47.808;19.004;2022-10-23T16:36:50;33.40;;;20.70;;
39968;SDS011;25648;47.808;19.004;2022-10-23T16:39:17;30.15;;;22.52;;
39968;SDS011;25648;47.808;19.004;2022-10-23T16:41:43;28.80;;;23.38;;
39968;SDS011;25648;47.808;19.004;2022-10-23T16:44:09;35.10;;;23.13;;
39968;SDS011;25648;47.808;19.004;2022-10-23T16:46:34;50.35;;;31.48;;
39968;SDS011;25648;47.808;19.004;2022-10-23T16:49:00;29.88;;;21.58;;
39968;SDS011;25648;47.808;19.004;2022-10-23T16:51:30;31.13;;;20.98;;